sensor_id;sensor_type;location;lat;lon;timestamp;temperature;humidity
3648;DHT22;1840;48.892;15.312;2023-05-17T00:02:26;7.50;99.90
3648;DHT22;1840;48.892;15.312;2023-05-17T00:04:54;7.50;99.90
3648;DHT22;1840;48.892;15.312;2023-05-17T00:07:23;7.60;99.90
3648;DHT22;1840;48.892;15.312;2023-05-17T00:09:51;7.60;99.90
3648;DHT22;1840;48.892;15.312;2023-05-17T00:12:19;7.60;99.90
3648;DHT22;1840;48.892;15.312;2023-05-17T00:14:48;7.40;99.90
3648;DHT22;1840;48.892;15.312;2023-05-17T00:17:16;7.40;99.90
3648;DHT22;1840;48.892;15.312;2023-05-17T00:19:44;7.40;99.90
3648;DHT22;1840;48.892;15.312;2023-05-17T00:22:12;7.40;99.90
3648;DHT22;1840;48.892;15.312;2023-05-17T00:24:41;7.40;99.90
3648;DHT22;1840;48.892;15.312;2023-05-17T00:27:09;7.30;99.90
3648;DHT22;1840;48.892;15.312;2023-05-17T00:29:37;7.20;99.90
3648;DHT22;1840;48.892;15.312;2023-05-17T00:32:06;7.30;99.90
3648;DHT22;1840;48.892;15.312;2023-05-17T00:34:34;7.30;99.90
3648;DHT22;1840;48.892;15.312;2023-05-17T00:37:03;7.20;99.90
3648;DHT22;1840;48.892;15.312;2023-05-17T00:39:31;7.40;99.90
3648;DHT22;1840;48.892;15.312;2023-05-17T00:42:00;7.50;99.90
3648;DHT22;1840;48.892;15.312;2023-05-17T00:44:28;7.50;99.90
3648;DHT22;1840;48.892;15.312;2023-05-17T00:46:56;7.60;99.90
3648;DHT22;1840;48.892;15.312;2023-05-17T00:49:27;7.70;99.90
3648;DHT22;1840;48.892;15.312;2023-05-17T00:51:55;7.70;99.90
3648;DHT22;1840;48.892;15.312;2023-05-17T00:54:24;7.80;99.90
3648;DHT22;1840;48.892;15.312;2023-05-17T00:56:53;7.80;99.90
3648;DHT22;1840;48.892;15.312;2023-05-17T00:59:23;7.70;99.90
3648;DHT22;1840;48.892;15.312;2023-05-17T01:01:53;7.80;99.90
3648;DHT22;1840;48.892;15.312;2023-05-17T01:04:21;7.70;99.90
3648;DHT22;1840;48.892;15.312;2023-05-17T01:06:51;7.60;99.90
3648;DHT22;1840;48.892;15.312;2023-05-17T01:09:19;7.60;99.90
3648;DHT22;1840;48.892;15.312;2023-05-17T01:11:53;7.60;99.90
3648;DHT22;1840;48.892;15.312;2023-05-17T01:14:32;7.50;99.90
3648;DHT22;1840;48.892;15.312;2023-05-17T01:17:05;7.50;99.90
3648;DHT22;1840;48.892;15.312;2023-05-17T01:19:51;7.60;99.90
3648;DHT22;1840;48.892;15.312;2023-05-17T01:22:30;7.40;99.90
3648;DHT22;1840;48.892;15.312;2023-05-17T01:25:06;7.50;99.90
3648;DHT22;1840;48.892;15.312;2023-05-17T01:27:40;7.40;99.90
3648;DHT22;1840;48.892;15.312;2023-05-17T01:30:12;7.40;99.90
3648;DHT22;1840;48.892;15.312;2023-05-17T01:32:41;7.40;99.90
3648;DHT22;1840;48.892;15.312;2023-05-17T01:35:10;7.30;99.90
3648;DHT22;1840;48.892;15.312;2023-05-17T01:37:38;7.20;99.90
3648;DHT22;1840;48.892;15.312;2023-05-17T01:40:08;7.20;99.90
3648;DHT22;1840;48.892;15.312;2023-05-17T01:42:40;7.20;99.90
3648;DHT22;1840;48.892;15.312;2023-05-17T01:45:15;7.20;99.90
3648;DHT22;1840;48.892;15.312;2023-05-17T01:47:57;7.10;99.90
3648;DHT22;1840;48.892;15.312;2023-05-17T01:50:28;7.10;99.90
3648;DHT22;1840;48.892;15.312;2023-05-17T01:53:01;7.00;99.90
3648;DHT22;1840;48.892;15.312;2023-05-17T01:55:40;7.00;99.90
3648;DHT22;1840;48.892;15.312;2023-05-17T01:58:12;7.00;99.90
3648;DHT22;1840;48.892;15.312;2023-05-17T02:00:42;7.10;99.90
3648;DHT22;1840;48.892;15.312;2023-05-17T02:03:12;7.10;99.90
3648;DHT22;1840;48.892;15.312;2023-05-17T02:05:40;7.10;99.90
3648;DHT22;1840;48.892;15.312;2023-05-17T02:08:08;7.10;99.90
3648;DHT22;1840;48.892;15.312;2023-05-17T02:10:36;7.10;99.90
3648;DHT22;1840;48.892;15.312;2023-05-17T02:13:04;7.00;99.90
3648;DHT22;1840;48.892;15.312;2023-05-17T02:15:34;7.00;99.90
3648;DHT22;1840;48.892;15.312;2023-05-17T02:18:02;7.00;99.90
3648;DHT22;1840;48.892;15.312;2023-05-17T02:20:30;7.00;99.90
3648;DHT22;1840;48.892;15.312;2023-05-17T02:22:58;7.00;99.90
3648;DHT22;1840;48.892;15.312;2023-05-17T02:25:26;7.00;99.90
3648;DHT22;1840;48.892;15.312;2023-05-17T02:27:55;7.00;99.90
3648;DHT22;1840;48.892;15.312;2023-05-17T02:30:23;6.90;99.90
3648;DHT22;1840;48.892;15.312;2023-05-17T02:32:55;6.90;99.90
3648;DHT22;1840;48.892;15.312;2023-05-17T02:35:23;6.90;99.90
3648;DHT22;1840;48.892;15.312;2023-05-17T02:37:51;6.90;99.90
3648;DHT22;1840;48.892;15.312;2023-05-17T02:40:19;6.90;99.90
3648;DHT22;1840;48.892;15.312;2023-05-17T02:42:47;7.00;99.90
3648;DHT22;1840;48.892;15.312;2023-05-17T02:45:15;6.90;99.90
3648;DHT22;1840;48.892;15.312;2023-05-17T02:47:44;6.90;99.90
3648;DHT22;1840;48.892;15.312;2023-05-17T02:50:13;6.80;99.90
3648;DHT22;1840;48.892;15.312;2023-05-17T02:52:41;6.90;99.90
3648;DHT22;1840;48.892;15.312;2023-05-17T02:55:09;7.00;99.90
3648;DHT22;1840;48.892;15.312;2023-05-17T02:57:37;7.00;99.90
3648;DHT22;1840;48.892;15.312;2023-05-17T03:00:07;7.00;99.90
3648;DHT22;1840;48.892;15.312;2023-05-17T03:02:35;6.90;99.90
3648;DHT22;1840;48.892;15.312;2023-05-17T03:05:04;7.00;99.90
3648;DHT22;1840;48.892;15.312;2023-05-17T03:07:34;7.00;99.90
3648;DHT22;1840;48.892;15.312;2023-05-17T03:10:02;7.00;99.90
3648;DHT22;1840;48.892;15.312;2023-05-17T03:12:30;6.90;99.90
3648;DHT22;1840;48.892;15.312;2023-05-17T03:14:58;6.90;99.90
3648;DHT22;1840;48.892;15.312;2023-05-17T03:17:26;6.90;99.90
3648;DHT22;1840;48.892;15.312;2023-05-17T03:19:55;6.90;99.90
3648;DHT22;1840;48.892;15.312;2023-05-17T03:22:23;7.00;99.90
3648;DHT22;1840;48.892;15.312;2023-05-17T03:24:52;6.90;99.90
3648;DHT22;1840;48.892;15.312;2023-05-17T03:27:21;6.70;99.90
3648;DHT22;1840;48.892;15.312;2023-05-17T03:29:49;6.50;99.90
3648;DHT22;1840;48.892;15.312;2023-05-17T03:32:17;6.40;99.90
3648;DHT22;1840;48.892;15.312;2023-05-17T03:34:45;6.40;99.90
3648;DHT22;1840;48.892;15.312;2023-05-17T03:37:13;6.30;99.90
3648;DHT22;1840;48.892;15.312;2023-05-17T03:39:41;6.40;99.90
3648;DHT22;1840;48.892;15.312;2023-05-17T03:42:10;6.30;99.90
3648;DHT22;1840;48.892;15.312;2023-05-17T03:44:39;6.40;99.90
3648;DHT22;1840;48.892;15.312;2023-05-17T03:47:07;6.40;99.90
3648;DHT22;1840;48.892;15.312;2023-05-17T03:49:35;6.40;99.90
3648;DHT22;1840;48.892;15.312;2023-05-17T03:52:03;6.50;99.90
3648;DHT22;1840;48.892;15.312;2023-05-17T03:54:31;6.50;99.90
3648;DHT22;1840;48.892;15.312;2023-05-17T03:56:59;6.60;99.90
3648;DHT22;1840;48.892;15.312;2023-05-17T03:59:30;6.50;99.90
3648;DHT22;1840;48.892;15.312;2023-05-17T04:01:58;6.50;99.90
3648;DHT22;1840;48.892;15.312;2023-05-17T04:04:27;6.50;99.90
3648;DHT22;1840;48.892;15.312;2023-05-17T04:06:55;6.60;99.90
3648;DHT22;1840;48.892;15.312;2023-05-17T04:09:23;6.50;99.90
3648;DHT22;1840;48.892;15.312;2023-05-17T04:11:51;6.50;99.90
3648;DHT22;1840;48.892;15.312;2023-05-17T04:14:19;6.50;99.90
3648;DHT22;1840;48.892;15.312;2023-05-17T04:16:49;6.50;99.90
3648;DHT22;1840;48.892;15.312;2023-05-17T04:19:17;6.50;99.90
3648;DHT22;1840;48.892;15.312;2023-05-17T04:21:45;6.50;99.90
3648;DHT22;1840;48.892;15.312;2023-05-17T04:24:13;6.50;99.90
3648;DHT22;1840;48.892;15.312;2023-05-17T04:26:41;6.60;99.90
3648;DHT22;1840;48.892;15.312;2023-05-17T04:29:10;6.50;99.90
3648;DHT22;1840;48.892;15.312;2023-05-17T04:31:38;6.50;99.90
3648;DHT22;1840;48.892;15.312;2023-05-17T04:34:07;6.40;99.90
3648;DHT22;1840;48.892;15.312;2023-05-17T04:36:35;6.40;99.90
3648;DHT22;1840;48.892;15.312;2023-05-17T04:39:03;6.40;99.90
3648;DHT22;1840;48.892;15.312;2023-05-17T04:41:32;6.30;99.90
3648;DHT22;1840;48.892;15.312;2023-05-17T04:44:01;6.20;99.90
3648;DHT22;1840;48.892;15.312;2023-05-17T04:46:29;6.00;99.90
3648;DHT22;1840;48.892;15.312;2023-05-17T04:48:57;5.90;99.90
3648;DHT22;1840;48.892;15.312;2023-05-17T04:51:28;5.80;99.90
3648;DHT22;1840;48.892;15.312;2023-05-17T04:53:56;5.90;99.90
3648;DHT22;1840;48.892;15.312;2023-05-17T04:56:26;5.80;99.90
3648;DHT22;1840;48.892;15.312;2023-05-17T04:58:54;5.90;99.90
3648;DHT22;1840;48.892;15.312;2023-05-17T05:01:22;5.80;99.90
3648;DHT22;1840;48.892;15.312;2023-05-17T05:03:51;5.80;99.90
3648;DHT22;1840;48.892;15.312;2023-05-17T05:06:19;5.90;99.90
3648;DHT22;1840;48.892;15.312;2023-05-17T05:08:49;5.80;99.90
3648;DHT22;1840;48.892;15.312;2023-05-17T05:11:17;5.80;99.90
3648;DHT22;1840;48.892;15.312;2023-05-17T05:13:45;5.70;99.90
3648;DHT22;1840;48.892;15.312;2023-05-17T05:16:13;5.60;99.90
3648;DHT22;1840;48.892;15.312;2023-05-17T05:18:41;5.50;99.90
3648;DHT22;1840;48.892;15.312;2023-05-17T05:21:10;5.60;99.90
3648;DHT22;1840;48.892;15.312;2023-05-17T05:23:38;5.60;99.90
3648;DHT22;1840;48.892;15.312;2023-05-17T05:26:07;5.50;99.90
3648;DHT22;1840;48.892;15.312;2023-05-17T05:28:35;5.60;99.90
3648;DHT22;1840;48.892;15.312;2023-05-17T05:31:04;5.50;99.90
3648;DHT22;1840;48.892;15.312;2023-05-17T05:33:32;5.50;99.90
3648;DHT22;1840;48.892;15.312;2023-05-17T05:36:00;5.60;99.90
3648;DHT22;1840;48.892;15.312;2023-05-17T05:38:28;5.60;99.90
3648;DHT22;1840;48.892;15.312;2023-05-17T05:40:56;5.50;99.90
3648;DHT22;1840;48.892;15.312;2023-05-17T05:43:26;5.50;99.90
3648;DHT22;1840;48.892;15.312;2023-05-17T05:45:54;5.50;99.90
3648;DHT22;1840;48.892;15.312;2023-05-17T05:48:22;5.50;99.90
3648;DHT22;1840;48.892;15.312;2023-05-17T05:50:50;5.50;99.90
3648;DHT22;1840;48.892;15.312;2023-05-17T05:53:18;5.50;99.90
3648;DHT22;1840;48.892;15.312;2023-05-17T05:55:46;5.40;99.90
3648;DHT22;1840;48.892;15.312;2023-05-17T05:58:15;5.40;99.90
3648;DHT22;1840;48.892;15.312;2023-05-17T06:00:44;5.40;99.90
3648;DHT22;1840;48.892;15.312;2023-05-17T06:03:13;5.40;99.90
3648;DHT22;1840;48.892;15.312;2023-05-17T06:05:41;5.20;99.90
3648;DHT22;1840;48.892;15.312;2023-05-17T06:08:09;5.30;99.90
3648;DHT22;1840;48.892;15.312;2023-05-17T06:10:37;5.20;99.90
3648;DHT22;1840;48.892;15.312;2023-05-17T06:13:05;5.30;99.90
3648;DHT22;1840;48.892;15.312;2023-05-17T06:15:34;5.40;99.90
3648;DHT22;1840;48.892;15.312;2023-05-17T06:18:04;5.50;99.90
3648;DHT22;1840;48.892;15.312;2023-05-17T06:20:32;5.40;99.90
3648;DHT22;1840;48.892;15.312;2023-05-17T06:23:00;5.60;99.90
3648;DHT22;1840;48.892;15.312;2023-05-17T06:25:30;5.50;99.90
3648;DHT22;1840;48.892;15.312;2023-05-17T06:27:59;5.50;99.90
3648;DHT22;1840;48.892;15.312;2023-05-17T06:30:28;5.60;99.90
3648;DHT22;1840;48.892;15.312;2023-05-17T06:32:57;5.60;99.90
3648;DHT22;1840;48.892;15.312;2023-05-17T06:35:26;5.60;99.90
3648;DHT22;1840;48.892;15.312;2023-05-17T06:38:03;5.40;99.90
3648;DHT22;1840;48.892;15.312;2023-05-17T06:40:31;5.50;99.90
3648;DHT22;1840;48.892;15.312;2023-05-17T06:43:00;5.70;99.90
3648;DHT22;1840;48.892;15.312;2023-05-17T06:45:28;5.60;99.90
3648;DHT22;1840;48.892;15.312;2023-05-17T06:47:56;5.80;99.90
3648;DHT22;1840;48.892;15.312;2023-05-17T06:50:24;5.80;99.90
3648;DHT22;1840;48.892;15.312;2023-05-17T06:52:55;5.60;99.90
3648;DHT22;1840;48.892;15.312;2023-05-17T06:55:23;5.60;99.90
3648;DHT22;1840;48.892;15.312;2023-05-17T06:57:51;5.70;99.90
3648;DHT22;1840;48.892;15.312;2023-05-17T07:00:23;5.80;99.90
3648;DHT22;1840;48.892;15.312;2023-05-17T07:02:51;5.80;99.90
3648;DHT22;1840;48.892;15.312;2023-05-17T07:05:21;5.90;99.90
3648;DHT22;1840;48.892;15.312;2023-05-17T07:07:50;6.00;99.90
3648;DHT22;1840;48.892;15.312;2023-05-17T07:10:19;6.10;99.90
3648;DHT22;1840;48.892;15.312;2023-05-17T07:12:47;6.10;99.90
3648;DHT22;1840;48.892;15.312;2023-05-17T07:15:16;6.00;99.90
3648;DHT22;1840;48.892;15.312;2023-05-17T07:17:44;5.90;99.90
3648;DHT22;1840;48.892;15.312;2023-05-17T07:20:12;5.80;99.90
3648;DHT22;1840;48.892;15.312;2023-05-17T07:22:40;5.70;99.90
3648;DHT22;1840;48.892;15.312;2023-05-17T07:25:09;5.50;99.90
3648;DHT22;1840;48.892;15.312;2023-05-17T07:27:38;5.70;99.90
3648;DHT22;1840;48.892;15.312;2023-05-17T07:30:07;5.70;99.90
3648;DHT22;1840;48.892;15.312;2023-05-17T07:32:35;5.90;99.90
3648;DHT22;1840;48.892;15.312;2023-05-17T07:35:04;6.00;99.90
3648;DHT22;1840;48.892;15.312;2023-05-17T07:37:32;5.80;99.90
3648;DHT22;1840;48.892;15.312;2023-05-17T07:40:01;5.80;99.90
3648;DHT22;1840;48.892;15.312;2023-05-17T07:42:31;5.80;99.90
3648;DHT22;1840;48.892;15.312;2023-05-17T07:45:01;6.00;99.90
3648;DHT22;1840;48.892;15.312;2023-05-17T07:47:29;6.00;99.90
3648;DHT22;1840;48.892;15.312;2023-05-17T07:49:57;5.70;99.90
3648;DHT22;1840;48.892;15.312;2023-05-17T07:52:26;5.60;99.90
3648;DHT22;1840;48.892;15.312;2023-05-17T07:54:54;5.70;99.90
3648;DHT22;1840;48.892;15.312;2023-05-17T07:57:22;5.70;99.90
3648;DHT22;1840;48.892;15.312;2023-05-17T07:59:50;5.80;99.90
3648;DHT22;1840;48.892;15.312;2023-05-17T08:02:19;5.90;99.90
3648;DHT22;1840;48.892;15.312;2023-05-17T08:04:47;5.90;99.90
3648;DHT22;1840;48.892;15.312;2023-05-17T08:07:16;6.00;99.90
3648;DHT22;1840;48.892;15.312;2023-05-17T08:09:47;6.20;99.90
3648;DHT22;1840;48.892;15.312;2023-05-17T08:12:15;6.30;99.20
3648;DHT22;1840;48.892;15.312;2023-05-17T08:14:43;6.10;99.80
3648;DHT22;1840;48.892;15.312;2023-05-17T08:17:11;6.30;99.70
3648;DHT22;1840;48.892;15.312;2023-05-17T08:19:40;6.40;99.40
3648;DHT22;1840;48.892;15.312;2023-05-17T08:22:09;6.30;98.90
3648;DHT22;1840;48.892;15.312;2023-05-17T08:24:38;6.40;99.30
3648;DHT22;1840;48.892;15.312;2023-05-17T08:27:06;6.50;99.20
3648;DHT22;1840;48.892;15.312;2023-05-17T08:29:36;6.60;98.80
3648;DHT22;1840;48.892;15.312;2023-05-17T08:32:06;6.70;98.90
3648;DHT22;1840;48.892;15.312;2023-05-17T08:34:34;6.80;98.90
3648;DHT22;1840;48.892;15.312;2023-05-17T08:37:04;6.80;98.40
3648;DHT22;1840;48.892;15.312;2023-05-17T08:39:32;6.80;98.50
3648;DHT22;1840;48.892;15.312;2023-05-17T08:42:00;6.80;98.60
3648;DHT22;1840;48.892;15.312;2023-05-17T08:44:28;6.90;98.80
3648;DHT22;1840;48.892;15.312;2023-05-17T08:46:57;6.80;98.00
3648;DHT22;1840;48.892;15.312;2023-05-17T08:49:29;7.00;98.30
3648;DHT22;1840;48.892;15.312;2023-05-17T08:51:59;7.00;98.20
3648;DHT22;1840;48.892;15.312;2023-05-17T08:54:30;6.90;97.80
3648;DHT22;1840;48.892;15.312;2023-05-17T08:56:59;7.00;98.50
3648;DHT22;1840;48.892;15.312;2023-05-17T08:59:30;7.20;98.20
3648;DHT22;1840;48.892;15.312;2023-05-17T09:02:00;7.40;98.80
3648;DHT22;1840;48.892;15.312;2023-05-17T09:04:28;7.50;98.20
3648;DHT22;1840;48.892;15.312;2023-05-17T09:06:57;7.70;98.30
3648;DHT22;1840;48.892;15.312;2023-05-17T09:09:25;7.80;97.80
3648;DHT22;1840;48.892;15.312;2023-05-17T09:11:55;7.70;97.60
3648;DHT22;1840;48.892;15.312;2023-05-17T09:14:24;7.50;97.20
3648;DHT22;1840;48.892;15.312;2023-05-17T09:16:56;7.40;97.30
3648;DHT22;1840;48.892;15.312;2023-05-17T09:19:24;7.50;97.70
3648;DHT22;1840;48.892;15.312;2023-05-17T09:21:53;7.50;97.40
3648;DHT22;1840;48.892;15.312;2023-05-17T09:24:27;7.60;97.70
3648;DHT22;1840;48.892;15.312;2023-05-17T09:27:01;7.50;97.40
3648;DHT22;1840;48.892;15.312;2023-05-17T09:29:30;7.70;97.80
3648;DHT22;1840;48.892;15.312;2023-05-17T09:32:11;7.80;97.70
3648;DHT22;1840;48.892;15.312;2023-05-17T09:34:40;8.00;97.70
3648;DHT22;1840;48.892;15.312;2023-05-17T09:37:12;7.90;97.20
3648;DHT22;1840;48.892;15.312;2023-05-17T09:39:42;7.70;97.70
3648;DHT22;1840;48.892;15.312;2023-05-17T09:42:13;7.80;97.60
3648;DHT22;1840;48.892;15.312;2023-05-17T09:44:47;7.80;97.00
3648;DHT22;1840;48.892;15.312;2023-05-17T09:47:22;7.60;96.90
3648;DHT22;1840;48.892;15.312;2023-05-17T09:49:51;7.50;97.40
3648;DHT22;1840;48.892;15.312;2023-05-17T09:52:19;7.60;97.90
3648;DHT22;1840;48.892;15.312;2023-05-17T09:54:52;7.40;97.20
3648;DHT22;1840;48.892;15.312;2023-05-17T09:57:22;7.60;97.20
3648;DHT22;1840;48.892;15.312;2023-05-17T09:59:54;7.60;96.90
3648;DHT22;1840;48.892;15.312;2023-05-17T10:02:27;7.60;97.00
3648;DHT22;1840;48.892;15.312;2023-05-17T10:04:56;7.70;97.30
3648;DHT22;1840;48.892;15.312;2023-05-17T10:07:26;8.00;97.40
3648;DHT22;1840;48.892;15.312;2023-05-17T10:09:55;7.80;96.90
3648;DHT22;1840;48.892;15.312;2023-05-17T10:12:27;7.80;97.20
3648;DHT22;1840;48.892;15.312;2023-05-17T10:14:56;7.70;96.30
3648;DHT22;1840;48.892;15.312;2023-05-17T10:17:26;7.80;96.50
3648;DHT22;1840;48.892;15.312;2023-05-17T10:19:55;7.70;96.90
3648;DHT22;1840;48.892;15.312;2023-05-17T10:22:25;7.80;97.30
3648;DHT22;1840;48.892;15.312;2023-05-17T10:24:55;7.80;97.00
3648;DHT22;1840;48.892;15.312;2023-05-17T10:27:26;7.90;96.80
3648;DHT22;1840;48.892;15.312;2023-05-17T10:29:55;8.00;97.20
3648;DHT22;1840;48.892;15.312;2023-05-17T10:32:26;8.10;96.70
3648;DHT22;1840;48.892;15.312;2023-05-17T10:34:55;8.30;96.90
3648;DHT22;1840;48.892;15.312;2023-05-17T10:37:39;8.40;96.80
3648;DHT22;1840;48.892;15.312;2023-05-17T10:40:08;8.50;97.00
3648;DHT22;1840;48.892;15.312;2023-05-17T10:42:44;8.60;96.80
3648;DHT22;1840;48.892;15.312;2023-05-17T10:45:13;8.60;96.60
3648;DHT22;1840;48.892;15.312;2023-05-17T10:47:42;8.60;96.30
3648;DHT22;1840;48.892;15.312;2023-05-17T10:50:12;8.50;95.70
3648;DHT22;1840;48.892;15.312;2023-05-17T10:52:46;8.20;95.70
3648;DHT22;1840;48.892;15.312;2023-05-17T10:55:18;8.10;95.80
3648;DHT22;1840;48.892;15.312;2023-05-17T10:58:11;8.10;96.10
3648;DHT22;1840;48.892;15.312;2023-05-17T11:00:43;8.10;96.00
3648;DHT22;1840;48.892;15.312;2023-05-17T11:03:14;8.10;95.90
3648;DHT22;1840;48.892;15.312;2023-05-17T11:06:10;8.00;95.70
3648;DHT22;1840;48.892;15.312;2023-05-17T11:08:43;8.10;96.30
3648;DHT22;1840;48.892;15.312;2023-05-17T11:11:16;8.20;96.30
3648;DHT22;1840;48.892;15.312;2023-05-17T11:13:50;8.20;96.10
3648;DHT22;1840;48.892;15.312;2023-05-17T11:16:26;8.20;95.80
3648;DHT22;1840;48.892;15.312;2023-05-17T11:19:05;8.30;96.40
3648;DHT22;1840;48.892;15.312;2023-05-17T11:21:34;8.30;96.20
3648;DHT22;1840;48.892;15.312;2023-05-17T11:24:02;8.30;96.10
3648;DHT22;1840;48.892;15.312;2023-05-17T11:26:33;8.30;95.90
3648;DHT22;1840;48.892;15.312;2023-05-17T11:29:07;8.40;96.20
3648;DHT22;1840;48.892;15.312;2023-05-17T11:31:42;8.40;96.10
3648;DHT22;1840;48.892;15.312;2023-05-17T11:34:10;8.30;95.70
3648;DHT22;1840;48.892;15.312;2023-05-17T11:36:49;8.30;95.90
3648;DHT22;1840;48.892;15.312;2023-05-17T11:39:19;8.20;95.70
3648;DHT22;1840;48.892;15.312;2023-05-17T11:41:48;8.20;95.90
3648;DHT22;1840;48.892;15.312;2023-05-17T11:44:22;8.30;96.00
3648;DHT22;1840;48.892;15.312;2023-05-17T11:47:00;8.30;96.40
3648;DHT22;1840;48.892;15.312;2023-05-17T11:49:30;8.50;96.80
3648;DHT22;1840;48.892;15.312;2023-05-17T11:52:03;8.60;97.20
3648;DHT22;1840;48.892;15.312;2023-05-17T11:54:32;8.70;97.20
3648;DHT22;1840;48.892;15.312;2023-05-17T11:57:01;8.80;96.90
3648;DHT22;1840;48.892;15.312;2023-05-17T11:59:37;8.70;96.40
3648;DHT22;1840;48.892;15.312;2023-05-17T12:02:06;8.70;96.10
3648;DHT22;1840;48.892;15.312;2023-05-17T12:04:35;8.70;96.30
3648;DHT22;1840;48.892;15.312;2023-05-17T12:07:07;8.70;96.30
3648;DHT22;1840;48.892;15.312;2023-05-17T12:09:38;8.60;96.00
3648;DHT22;1840;48.892;15.312;2023-05-17T12:12:07;8.60;95.60
3648;DHT22;1840;48.892;15.312;2023-05-17T12:14:36;8.60;95.90
3648;DHT22;1840;48.892;15.312;2023-05-17T12:17:07;8.60;96.10
3648;DHT22;1840;48.892;15.312;2023-05-17T12:19:36;8.70;95.80
3648;DHT22;1840;48.892;15.312;2023-05-17T12:22:05;8.80;95.80
3648;DHT22;1840;48.892;15.312;2023-05-17T12:24:37;8.70;95.80
3648;DHT22;1840;48.892;15.312;2023-05-17T12:27:06;8.80;96.00
3648;DHT22;1840;48.892;15.312;2023-05-17T12:29:34;8.80;96.00
3648;DHT22;1840;48.892;15.312;2023-05-17T12:32:05;8.80;95.70
3648;DHT22;1840;48.892;15.312;2023-05-17T12:34:34;8.80;95.80
3648;DHT22;1840;48.892;15.312;2023-05-17T12:37:03;8.70;95.50
3648;DHT22;1840;48.892;15.312;2023-05-17T12:39:35;8.60;95.60
3648;DHT22;1840;48.892;15.312;2023-05-17T12:42:04;8.60;95.40
3648;DHT22;1840;48.892;15.312;2023-05-17T12:44:32;8.50;95.10
3648;DHT22;1840;48.892;15.312;2023-05-17T12:47:01;8.50;95.30
3648;DHT22;1840;48.892;15.312;2023-05-17T12:49:36;8.50;95.70
3648;DHT22;1840;48.892;15.312;2023-05-17T12:52:05;8.60;95.50
3648;DHT22;1840;48.892;15.312;2023-05-17T12:54:33;8.70;95.40
3648;DHT22;1840;48.892;15.312;2023-05-17T12:57:12;8.60;95.60
3648;DHT22;1840;48.892;15.312;2023-05-17T12:59:48;8.80;95.70
3648;DHT22;1840;48.892;15.312;2023-05-17T13:02:18;8.80;95.50
3648;DHT22;1840;48.892;15.312;2023-05-17T13:04:48;9.00;95.80
3648;DHT22;1840;48.892;15.312;2023-05-17T13:07:21;9.00;95.50
3648;DHT22;1840;48.892;15.312;2023-05-17T13:09:49;9.00;95.30
3648;DHT22;1840;48.892;15.312;2023-05-17T13:12:20;9.10;95.00
3648;DHT22;1840;48.892;15.312;2023-05-17T13:14:51;9.10;95.10
3648;DHT22;1840;48.892;15.312;2023-05-17T13:17:24;9.10;95.40
3648;DHT22;1840;48.892;15.312;2023-05-17T13:19:54;9.10;95.10
3648;DHT22;1840;48.892;15.312;2023-05-17T13:22:23;9.10;95.10
3648;DHT22;1840;48.892;15.312;2023-05-17T13:24:52;9.20;95.30
3648;DHT22;1840;48.892;15.312;2023-05-17T13:27:20;9.30;95.30
3648;DHT22;1840;48.892;15.312;2023-05-17T13:29:48;9.20;94.80
3648;DHT22;1840;48.892;15.312;2023-05-17T13:32:17;9.10;94.70
3648;DHT22;1840;48.892;15.312;2023-05-17T13:34:45;9.20;94.80
3648;DHT22;1840;48.892;15.312;2023-05-17T13:37:14;9.10;95.00
3648;DHT22;1840;48.892;15.312;2023-05-17T13:39:43;9.20;94.50
3648;DHT22;1840;48.892;15.312;2023-05-17T13:42:11;9.10;94.50
3648;DHT22;1840;48.892;15.312;2023-05-17T13:44:40;9.10;94.80
3648;DHT22;1840;48.892;15.312;2023-05-17T13:47:08;9.10;94.50
3648;DHT22;1840;48.892;15.312;2023-05-17T13:49:36;9.10;94.70
3648;DHT22;1840;48.892;15.312;2023-05-17T13:52:06;9.10;94.90
3648;DHT22;1840;48.892;15.312;2023-05-17T13:54:36;9.00;94.90
3648;DHT22;1840;48.892;15.312;2023-05-17T13:57:05;9.00;94.90
3648;DHT22;1840;48.892;15.312;2023-05-17T13:59:33;9.00;94.90
3648;DHT22;1840;48.892;15.312;2023-05-17T14:02:01;9.10;95.20
3648;DHT22;1840;48.892;15.312;2023-05-17T14:04:30;9.10;95.10
3648;DHT22;1840;48.892;15.312;2023-05-17T14:06:58;9.00;95.10
3648;DHT22;1840;48.892;15.312;2023-05-17T14:09:27;9.00;95.20
3648;DHT22;1840;48.892;15.312;2023-05-17T14:12:00;8.90;95.20
3648;DHT22;1840;48.892;15.312;2023-05-17T14:14:29;9.00;96.20
3648;DHT22;1840;48.892;15.312;2023-05-17T14:16:57;8.90;96.20
3648;DHT22;1840;48.892;15.312;2023-05-17T14:19:27;8.90;96.40
3648;DHT22;1840;48.892;15.312;2023-05-17T14:21:55;8.90;96.80
3648;DHT22;1840;48.892;15.312;2023-05-17T14:24:23;8.90;96.30
3648;DHT22;1840;48.892;15.312;2023-05-17T14:26:51;8.90;96.30
3648;DHT22;1840;48.892;15.312;2023-05-17T14:29:21;8.80;96.20
3648;DHT22;1840;48.892;15.312;2023-05-17T14:31:49;8.80;96.60
3648;DHT22;1840;48.892;15.312;2023-05-17T14:34:17;8.90;96.70
3648;DHT22;1840;48.892;15.312;2023-05-17T14:36:46;8.90;96.90
3648;DHT22;1840;48.892;15.312;2023-05-17T14:39:14;8.90;97.30
3648;DHT22;1840;48.892;15.312;2023-05-17T14:41:43;8.80;97.10
3648;DHT22;1840;48.892;15.312;2023-05-17T14:44:11;8.70;97.30
3648;DHT22;1840;48.892;15.312;2023-05-17T14:46:40;8.70;97.30
3648;DHT22;1840;48.892;15.312;2023-05-17T14:49:09;8.70;97.60
3648;DHT22;1840;48.892;15.312;2023-05-17T14:51:37;8.60;98.50
3648;DHT22;1840;48.892;15.312;2023-05-17T14:54:05;8.60;97.70
3648;DHT22;1840;48.892;15.312;2023-05-17T14:56:33;8.50;97.60
3648;DHT22;1840;48.892;15.312;2023-05-17T14:59:01;8.40;97.60
3648;DHT22;1840;48.892;15.312;2023-05-17T15:01:30;8.40;97.80
3648;DHT22;1840;48.892;15.312;2023-05-17T15:04:00;8.40;97.80
3648;DHT22;1840;48.892;15.312;2023-05-17T15:06:28;8.30;97.90
3648;DHT22;1840;48.892;15.312;2023-05-17T15:08:57;8.40;98.00
3648;DHT22;1840;48.892;15.312;2023-05-17T15:11:25;8.50;98.10
3648;DHT22;1840;48.892;15.312;2023-05-17T15:13:53;8.50;98.40
3648;DHT22;1840;48.892;15.312;2023-05-17T15:16:22;8.50;98.30
3648;DHT22;1840;48.892;15.312;2023-05-17T15:18:50;8.50;98.20
3648;DHT22;1840;48.892;15.312;2023-05-17T15:21:23;8.40;97.80
3648;DHT22;1840;48.892;15.312;2023-05-17T15:23:51;8.40;98.30
3648;DHT22;1840;48.892;15.312;2023-05-17T15:26:19;8.40;98.40
3648;DHT22;1840;48.892;15.312;2023-05-17T15:28:47;8.40;98.50
3648;DHT22;1840;48.892;15.312;2023-05-17T15:31:16;8.30;98.40
3648;DHT22;1840;48.892;15.312;2023-05-17T15:33:49;8.30;98.70
3648;DHT22;1840;48.892;15.312;2023-05-17T15:36:18;8.30;98.70
3648;DHT22;1840;48.892;15.312;2023-05-17T15:38:48;8.30;98.60
3648;DHT22;1840;48.892;15.312;2023-05-17T15:41:16;8.10;98.50
3648;DHT22;1840;48.892;15.312;2023-05-17T15:43:47;8.00;98.10
3648;DHT22;1840;48.892;15.312;2023-05-17T15:46:15;7.80;98.00
3648;DHT22;1840;48.892;15.312;2023-05-17T15:48:43;7.60;98.20
3648;DHT22;1840;48.892;15.312;2023-05-17T15:51:12;7.70;98.20
3648;DHT22;1840;48.892;15.312;2023-05-17T15:53:40;7.70;98.20
3648;DHT22;1840;48.892;15.312;2023-05-17T15:56:09;7.60;98.00
3648;DHT22;1840;48.892;15.312;2023-05-17T15:58:37;7.40;97.70
3648;DHT22;1840;48.892;15.312;2023-05-17T16:01:05;7.30;98.20
3648;DHT22;1840;48.892;15.312;2023-05-17T16:03:33;7.40;98.20
3648;DHT22;1840;48.892;15.312;2023-05-17T16:06:02;7.40;97.90
3648;DHT22;1840;48.892;15.312;2023-05-17T16:08:31;7.50;98.00
3648;DHT22;1840;48.892;15.312;2023-05-17T16:10:59;7.40;98.20
3648;DHT22;1840;48.892;15.312;2023-05-17T16:13:29;7.40;98.80
3648;DHT22;1840;48.892;15.312;2023-05-17T16:15:58;7.40;98.90
3648;DHT22;1840;48.892;15.312;2023-05-17T16:18:26;7.40;98.90